createdAt,value
2018-05-04T00:01:04.073Z,95.30
2018-05-04T00:03:48.639Z,95.30
2018-05-04T00:06:17.113Z,95.20
2018-05-04T00:08:45.815Z,95.30
2018-05-04T00:11:34.171Z,95.50
2018-05-04T00:14:07.735Z,95.80
2018-05-04T00:16:37.337Z,96.00
2018-05-04T00:19:12.158Z,96.00
2018-05-04T00:21:43.027Z,96.40
2018-05-04T00:24:14.781Z,96.40
2018-05-04T00:26:43.444Z,96.40
2018-05-04T00:29:23.762Z,96.50
2018-05-04T00:32:02.600Z,96.30
2018-05-04T00:34:40.237Z,96.50
2018-05-04T00:37:11.376Z,96.50
2018-05-04T00:39:49.573Z,96.50
2018-05-04T00:42:28.134Z,96.40
2018-05-04T00:44:59.866Z,96.30
2018-05-04T00:47:31.638Z,96.30
2018-05-04T00:50:02.478Z,96.70
2018-05-04T00:52:40.944Z,96.70
2018-05-04T00:55:19.556Z,96.90
2018-05-04T00:58:08.208Z,96.60
2018-05-04T01:00:35.946Z,96.40
2018-05-04T01:03:08.910Z,96.40
2018-05-04T01:05:37.853Z,96.70
2018-05-04T01:08:11.864Z,96.60
2018-05-04T01:10:49.427Z,96.60
2018-05-04T01:13:20.547Z,96.80
2018-05-04T01:15:55.071Z,96.90
2018-05-04T01:18:29.619Z,96.80
2018-05-04T01:20:57.124Z,97.00
2018-05-04T01:23:30.354Z,96.60
2018-05-04T01:26:02.187Z,96.80
2018-05-04T01:28:31.729Z,96.80
2018-05-04T01:31:00.524Z,96.80
2018-05-04T01:33:42.549Z,97.20
2018-05-04T01:36:10.978Z,97.20
2018-05-04T01:38:47.099Z,97.00
2018-05-04T01:41:18.193Z,97.20
2018-05-04T01:43:49.091Z,97.40
2018-05-04T01:46:19.607Z,97.50
2018-05-04T01:48:51.630Z,97.50
2018-05-04T01:51:29.824Z,97.40
2018-05-04T01:59:57.281Z,97.50
2018-05-04T02:05:23.938Z,97.50
2018-05-04T02:10:56.538Z,97.60
2018-05-04T02:13:26.225Z,97.60
2018-05-04T02:16:01.140Z,97.50
2018-05-04T02:18:40.775Z,97.60
2018-05-04T02:21:21.064Z,97.80
2018-05-04T02:23:54.447Z,97.90
2018-05-04T02:26:40.253Z,97.90
2018-05-04T02:29:08.719Z,98.00
2018-05-04T02:31:41.393Z,98.40
2018-05-04T02:34:16.094Z,98.20
2018-05-04T02:36:47.065Z,98.20
2018-05-04T02:39:14.579Z,98.20
2018-05-04T02:41:43.820Z,98.00
2018-05-04T02:44:11.327Z,98.00
2018-05-04T02:46:47.375Z,98.10
2018-05-04T02:49:16.948Z,98.20
2018-05-04T02:51:46.563Z,98.40
2018-05-04T02:54:26.585Z,98.50
2018-05-04T02:57:12.157Z,98.50
2018-05-04T02:59:40.891Z,98.60
2018-05-04T03:02:15.069Z,98.60
2018-05-04T03:04:54.515Z,98.50
2018-05-04T03:10:14.969Z,98.30
2018-05-04T03:12:44.553Z,98.50
2018-05-04T03:15:15.711Z,98.60
2018-05-04T03:17:48.413Z,98.60
2018-05-04T03:20:17.999Z,98.70
2018-05-04T03:22:48.853Z,98.80
2018-05-04T03:25:17.517Z,98.70
2018-05-04T03:27:50.754Z,98.80
2018-05-04T03:30:35.088Z,98.70
2018-05-04T03:33:15.809Z,99.10
2018-05-04T03:35:57.045Z,99.10
2018-05-04T03:38:26.737Z,99.20
2018-05-04T03:41:05.833Z,99.10
2018-05-04T03:43:37.014Z,98.90
2018-05-04T03:46:17.333Z,99.00
2018-05-04T03:48:46.059Z,99.10
2018-05-04T03:51:32.795Z,99.10
2018-05-04T03:54:06.164Z,99.00
2018-05-04T03:56:37.309Z,99.20
2018-05-04T03:59:21.493Z,99.20
2018-05-04T04:04:46.069Z,99.40
2018-05-04T04:07:23.636Z,99.40
2018-05-04T04:10:03.079Z,99.30
2018-05-04T04:15:23.532Z,99.40
2018-05-04T04:17:54.363Z,99.50
2018-05-04T04:20:32.854Z,99.30
2018-05-04T04:23:04.613Z,99.40
2018-05-04T04:25:44.039Z,99.20
2018-05-04T04:28:30.514Z,98.90
2018-05-04T04:31:09.391Z,99.00
2018-05-04T04:33:48.808Z,99.00
2018-05-04T04:36:28.295Z,99.10
2018-05-04T04:39:03.093Z,99.00
2018-05-04T04:41:31.811Z,99.20
2018-05-04T04:44:00.489Z,99.30
2018-05-04T04:46:47.055Z,99.30
2018-05-04T04:49:23.385Z,99.30
2018-05-04T04:52:02.761Z,99.30
2018-05-04T04:54:34.863Z,99.30
2018-05-04T05:00:02.622Z,99.30
2018-05-04T05:02:30.107Z,99.30
2018-05-04T05:04:57.600Z,99.10
2018-05-04T05:07:25.102Z,99.20
2018-05-04T05:09:52.777Z,99.10
2018-05-04T05:12:20.285Z,99.10
2018-05-04T05:14:48.937Z,98.70
2018-05-04T05:17:29.239Z,98.40
2018-05-04T05:20:12.060Z,98.10
2018-05-04T05:22:47.819Z,98.20
2018-05-04T05:25:15.359Z,98.20
2018-05-04T05:27:48.621Z,97.80
2018-05-04T05:30:18.231Z,97.80
2018-05-04T05:32:47.827Z,97.70
2018-05-04T05:35:20.531Z,97.60
2018-05-04T05:38:07.067Z,97.00
2018-05-04T05:40:34.823Z,96.60
2018-05-04T05:43:07.148Z,96.30
2018-05-04T05:45:44.735Z,96.30
2018-05-04T05:48:12.237Z,95.90
2018-05-04T05:50:45.525Z,95.70
2018-05-04T05:56:11.488Z,95.50
2018-05-04T05:58:40.167Z,94.80
2018-05-04T06:01:07.916Z,94.90
2018-05-04T06:03:43.353Z,94.80
2018-05-04T06:06:18.151Z,94.80
2018-05-04T06:08:51.192Z,95.10
2018-05-04T06:11:33.003Z,95.10
2018-05-04T06:14:03.317Z,94.70
2018-05-04T06:16:37.775Z,94.60
2018-05-04T06:19:10.825Z,94.60
2018-05-04T06:22:02.292Z,94.40
2018-05-04T06:24:31.855Z,94.50
2018-05-04T06:27:06.049Z,94.30
2018-05-04T06:32:31.390Z,94.10
2018-05-04T06:35:12.299Z,93.80
2018-05-04T06:38:01.682Z,93.50
2018-05-04T06:40:35.839Z,91.70
2018-05-04T06:43:09.728Z,91.60
2018-05-04T06:45:40.701Z,91.40
2018-05-04T06:48:12.367Z,91.10
2018-05-04T06:51:03.818Z,91.00
2018-05-04T06:53:33.401Z,91.10
2018-05-04T06:56:06.973Z,90.60
2018-05-04T06:58:37.834Z,90.70
2018-05-04T07:04:05.896Z,90.40
2018-05-04T07:06:38.914Z,90.10
2018-05-04T07:12:01.169Z,89.60
2018-05-04T07:14:31.411Z,88.90
2018-05-04T07:17:03.148Z,88.90
2018-05-04T07:19:30.659Z,87.50
2018-05-04T07:22:16.128Z,87.90
2018-05-04T07:24:44.587Z,85.70
2018-05-04T07:27:23.702Z,85.60
2018-05-04T07:33:02.503Z,84.80
2018-05-04T07:35:41.371Z,84.30
2018-05-04T07:38:23.835Z,83.90
2018-05-04T07:40:51.381Z,83.70
2018-05-04T07:43:19.115Z,84.30
2018-05-04T07:45:48.723Z,83.30
2018-05-04T07:48:34.659Z,82.50
2018-05-04T07:51:13.721Z,82.90
2018-05-04T07:53:43.407Z,81.60
2018-05-04T07:56:16.027Z,81.70
2018-05-04T07:58:58.813Z,83.90
2018-05-04T08:01:27.572Z,81.90
2018-05-04T08:03:55.301Z,81.80
2018-05-04T08:06:42.047Z,81.60
2018-05-04T08:09:10.509Z,81.80
2018-05-04T08:11:42.875Z,79.10
2018-05-04T08:14:22.267Z,79.00
2018-05-04T08:16:51.007Z,79.00
2018-05-04T08:22:15.178Z,79.30
2018-05-04T08:24:43.792Z,78.30
2018-05-04T08:27:11.301Z,77.90
2018-05-04T08:29:39.020Z,77.70
2018-05-04T08:32:11.071Z,76.50
2018-05-04T08:34:39.991Z,75.10
2018-05-04T08:37:17.946Z,74.60
2018-05-04T08:39:45.754Z,75.80
2018-05-04T08:42:19.901Z,76.40
2018-05-04T08:44:52.337Z,75.10
2018-05-04T08:47:24.393Z,73.90
2018-05-04T08:50:00.461Z,71.50
2018-05-04T08:52:37.406Z,73.70
2018-05-04T08:55:08.270Z,73.70
2018-05-04T08:57:39.129Z,71.80
2018-05-04T09:00:07.467Z,68.80
2018-05-04T09:02:37.093Z,68.80
2018-05-04T09:05:16.896Z,69.80
2018-05-04T09:07:50.400Z,67.90
2018-05-04T09:10:22.225Z,67.60
2018-05-04T09:12:53.646Z,66.70
2018-05-04T09:15:35.210Z,67.60
2018-05-04T09:18:02.719Z,66.90
2018-05-04T09:20:32.003Z,67.50
2018-05-04T09:23:00.715Z,67.50
2018-05-04T09:25:34.271Z,67.60
2018-05-04T09:28:05.467Z,68.70
2018-05-04T09:30:44.539Z,66.00
2018-05-04T09:33:22.147Z,65.10
2018-05-04T09:35:51.777Z,67.50
2018-05-04T09:38:30.521Z,65.60
2018-05-04T09:43:52.874Z,59.30
2018-05-04T09:46:27.031Z,57.00
2018-05-04T09:48:55.770Z,59.10
2018-05-04T09:51:30.256Z,58.90
2018-05-04T09:54:00.821Z,58.80
2018-05-04T09:56:29.516Z,57.10
2018-05-04T09:59:06.788Z,56.80
2018-05-04T10:01:37.625Z,57.60
2018-05-04T10:04:10.913Z,57.50
2018-05-04T10:06:55.211Z,56.70
2018-05-04T10:09:26.748Z,56.40
2018-05-04T10:12:00.022Z,56.40
2018-05-04T10:14:33.611Z,57.00
2018-05-04T10:17:11.202Z,56.10
2018-05-04T10:19:50.637Z,57.80
2018-05-04T10:25:25.143Z,55.30
2018-05-04T10:27:53.610Z,55.30
2018-05-04T10:30:47.821Z,55.30
2018-05-04T10:33:40.151Z,55.20
2018-05-04T10:36:20.114Z,54.90
2018-05-04T10:38:59.956Z,55.50
2018-05-04T10:41:43.313Z,57.00
2018-05-04T10:44:24.898Z,55.80
2018-05-04T10:46:53.333Z,55.70
2018-05-04T10:49:21.995Z,55.20
2018-05-04T10:51:55.308Z,56.10
2018-05-04T10:54:23.988Z,54.80
2018-05-04T10:56:52.657Z,55.90
2018-05-04T10:59:32.103Z,55.80
2018-05-04T11:02:10.646Z,54.70
2018-05-04T11:04:58.720Z,53.20
2018-05-04T11:07:40.499Z,56.00
2018-05-04T11:10:13.594Z,55.50
2018-05-04T11:12:45.319Z,51.20
2018-05-04T11:15:22.603Z,49.00
2018-05-04T11:17:54.999Z,47.90
2018-05-04T11:23:31.307Z,52.90
2018-05-04T11:25:59.769Z,52.80
2018-05-04T11:28:30.891Z,51.60
2018-05-04T11:31:01.718Z,51.30
2018-05-04T11:33:40.859Z,53.40
2018-05-04T11:36:19.348Z,52.30
2018-05-04T11:39:07.457Z,52.90
2018-05-04T11:41:37.025Z,50.90
2018-05-04T11:44:08.503Z,49.80
2018-05-04T11:46:37.172Z,52.20
2018-05-04T11:49:09.235Z,50.90
2018-05-04T11:51:40.068Z,51.30
2018-05-04T11:54:24.062Z,52.20
2018-05-04T11:57:13.131Z,52.00
2018-05-04T11:59:53.101Z,51.90
2018-05-04T12:02:39.883Z,50.70
2018-05-04T12:05:09.583Z,51.20
2018-05-04T12:08:02.553Z,51.00
2018-05-04T12:13:32.420Z,49.90
2018-05-04T12:16:05.468Z,51.10
2018-05-04T12:18:48.499Z,48.70
2018-05-04T12:21:28.646Z,48.70
2018-05-04T12:27:01.014Z,49.80
2018-05-04T12:29:39.505Z,50.70
2018-05-04T12:32:19.560Z,51.10
2018-05-04T12:34:47.098Z,49.00
2018-05-04T12:37:19.462Z,48.80
2018-05-04T12:39:53.692Z,48.60
2018-05-04T12:42:21.442Z,49.00
2018-05-04T12:45:05.681Z,49.60
2018-05-04T12:47:41.518Z,51.50
2018-05-04T12:50:16.050Z,50.00
2018-05-04T12:53:05.701Z,49.80
2018-05-04T12:55:37.383Z,49.80
2018-05-04T12:58:08.231Z,47.80
2018-05-04T13:00:39.035Z,48.00
2018-05-04T13:03:31.427Z,47.00
2018-05-04T13:06:11.733Z,48.50
2018-05-04T13:08:57.274Z,48.10
2018-05-04T13:11:25.716Z,48.10
2018-05-04T13:14:07.238Z,49.70
2018-05-04T13:16:38.449Z,48.10
2018-05-04T13:19:12.972Z,47.20
2018-05-04T13:21:47.467Z,47.80
2018-05-04T13:24:18.674Z,50.00
2018-05-04T13:26:46.451Z,48.50
2018-05-04T13:29:26.449Z,49.00
2018-05-04T13:31:56.073Z,48.30
2018-05-04T13:34:36.704Z,48.40
2018-05-04T13:37:05.460Z,47.00
2018-05-04T13:39:35.078Z,48.00
2018-05-04T13:42:08.360Z,48.80
2018-05-04T13:44:36.097Z,48.30
2018-05-04T13:47:03.604Z,48.80
2018-05-04T13:49:31.332Z,48.80
2018-05-04T13:52:00.621Z,47.80
2018-05-04T13:54:30.226Z,47.80
2018-05-04T13:57:02.302Z,47.80
2018-05-04T13:59:50.686Z,48.50
2018-05-04T14:02:23.342Z,49.00
2018-05-04T14:04:54.164Z,50.10
2018-05-04T14:07:35.397Z,47.70
2018-05-04T14:13:00.176Z,48.10
2018-05-04T14:15:34.653Z,47.50
2018-05-04T14:18:03.390Z,47.50
2018-05-04T14:20:32.051Z,47.20
2018-05-04T14:23:03.233Z,47.20
2018-05-04T14:25:37.101Z,47.30
2018-05-04T14:28:09.507Z,49.30
2018-05-04T14:30:37.006Z,49.70
2018-05-04T14:33:09.020Z,48.70
2018-05-04T14:35:38.606Z,48.60
2018-05-04T14:38:14.357Z,47.10
2018-05-04T14:40:51.923Z,46.70
2018-05-04T14:43:19.446Z,46.90
2018-05-04T14:45:55.146Z,46.70
2018-05-04T14:48:24.808Z,45.70
2018-05-04T14:51:00.202Z,46.50
2018-05-04T14:53:33.814Z,46.50
2018-05-04T14:56:02.525Z,46.90
2018-05-04T14:58:47.799Z,46.40
2018-05-04T15:01:18.926Z,45.20
2018-05-04T15:03:53.464Z,45.10
2018-05-04T15:06:31.942Z,44.70
2018-05-04T15:09:00.382Z,44.00
2018-05-04T15:11:30.011Z,43.30
2018-05-04T15:14:11.532Z,44.70
2018-05-04T15:16:40.238Z,46.70
2018-05-04T15:19:08.938Z,46.80
2018-05-04T15:21:38.574Z,44.80
2018-05-04T15:24:24.058Z,45.50
2018-05-04T15:26:52.530Z,46.90
2018-05-04T15:29:20.063Z,45.60
2018-05-04T15:31:47.763Z,46.00
2018-05-04T15:34:27.152Z,46.40
2018-05-04T15:37:02.306Z,45.40
2018-05-04T15:39:30.127Z,46.00
2018-05-04T15:41:59.698Z,45.60
2018-05-04T15:44:33.624Z,45.20
2018-05-04T15:47:01.967Z,45.60
2018-05-04T15:49:30.663Z,45.60
2018-05-04T15:52:06.842Z,44.80
2018-05-04T15:54:34.472Z,45.00
2018-05-04T15:57:04.075Z,45.60
2018-05-04T15:59:33.762Z,45.90
2018-05-04T16:02:02.599Z,44.10
2018-05-04T16:04:37.222Z,43.90
2018-05-04T16:07:09.010Z,44.10
2018-05-04T16:09:46.261Z,42.90
2018-05-04T16:12:33.159Z,43.60
2018-05-04T16:15:06.394Z,44.90
2018-05-04T16:17:39.957Z,44.30
2018-05-04T16:20:17.543Z,44.20
2018-05-04T16:23:01.866Z,45.20
2018-05-04T16:25:29.408Z,46.10
2018-05-04T16:27:58.200Z,44.80
2018-05-04T16:30:31.398Z,44.50
2018-05-04T16:33:02.230Z,44.00
2018-05-04T16:35:34.956Z,43.60
2018-05-04T16:38:02.650Z,44.40
2018-05-04T16:40:55.344Z,45.10
2018-05-04T16:43:29.498Z,44.50
2018-05-04T16:52:11.724Z,44.50
2018-05-04T16:54:44.818Z,45.00
2018-05-04T16:57:26.063Z,45.40
2018-05-04T17:00:11.557Z,46.40
2018-05-04T17:02:41.254Z,46.30
2018-05-04T17:05:08.764Z,45.80
2018-05-04T17:07:38.014Z,45.70
2018-05-04T17:10:06.373Z,45.50
2018-05-04T17:12:35.379Z,45.10
2018-05-04T17:15:06.603Z,45.70
2018-05-04T17:17:52.647Z,44.90
2018-05-04T17:20:21.148Z,46.20
2018-05-04T17:22:50.724Z,45.50
2018-05-04T17:25:19.384Z,45.40
2018-05-04T17:27:46.917Z,45.90
2018-05-04T17:30:14.626Z,46.10
2018-05-04T17:32:42.135Z,46.10
2018-05-04T17:35:15.074Z,45.30
2018-05-04T17:37:43.452Z,45.60
2018-05-04T17:40:17.741Z,45.60
2018-05-04T17:43:02.947Z,46.40
2018-05-04T17:45:50.115Z,47.30
2018-05-04T17:48:18.742Z,46.80
2018-05-04T17:50:56.316Z,47.30
2018-05-04T17:53:26.014Z,46.80
2018-05-04T17:55:57.114Z,47.40
2018-05-04T17:58:33.335Z,48.70
2018-05-04T18:01:02.194Z,47.90
2018-05-04T18:03:39.699Z,49.00
2018-05-04T18:06:15.515Z,49.00
2018-05-04T18:08:48.531Z,49.40
2018-05-04T18:11:16.274Z,49.20
2018-05-04T18:13:49.843Z,49.60
2018-05-04T18:16:18.093Z,50.70
2018-05-04T18:18:45.706Z,51.50
2018-05-04T18:21:19.921Z,50.60
2018-05-04T18:23:49.216Z,52.00
2018-05-04T18:26:25.290Z,52.10
2018-05-04T18:29:02.841Z,52.20
2018-05-04T18:31:35.030Z,52.40
2018-05-04T18:34:08.532Z,52.80
2018-05-04T18:36:37.835Z,52.60
2018-05-04T18:39:10.223Z,53.20
2018-05-04T18:41:38.914Z,53.80
2018-05-04T18:44:06.460Z,54.50
2018-05-04T18:46:42.080Z,54.40
2018-05-04T18:49:12.968Z,54.60
2018-05-04T18:51:41.657Z,55.00
2018-05-04T18:54:10.351Z,55.10
2018-05-04T18:56:38.119Z,56.10
2018-05-04T18:59:05.905Z,55.70
2018-05-04T19:01:37.010Z,56.10
2018-05-04T19:04:05.380Z,56.50
2018-05-04T19:06:41.078Z,56.50
2018-05-04T19:09:09.642Z,56.60
2018-05-04T19:11:38.206Z,56.90
2018-05-04T19:14:09.372Z,57.40
2018-05-04T19:16:38.092Z,57.40
2018-05-04T19:19:10.712Z,57.90
2018-05-04T19:21:41.566Z,58.40
2018-05-04T19:24:21.645Z,58.80
2018-05-04T19:26:49.419Z,59.20
2018-05-04T19:29:20.538Z,59.80
2018-05-04T19:31:51.376Z,59.60
2018-05-04T19:34:28.996Z,61.00
2018-05-04T19:37:00.091Z,59.80
2018-05-04T19:39:27.608Z,61.50
2018-05-04T19:41:56.296Z,62.00
2018-05-04T19:44:36.550Z,63.50
2018-05-04T19:47:07.774Z,62.00
2018-05-04T19:52:30.962Z,63.40
2018-05-04T19:54:58.470Z,63.30
2018-05-04T19:57:26.271Z,63.90
2018-05-04T19:59:53.906Z,63.20
2018-05-04T20:02:21.421Z,63.60
2018-05-04T20:04:53.231Z,63.30
2018-05-04T20:07:26.616Z,63.20
2018-05-04T20:09:54.183Z,63.20
2018-05-04T20:12:25.677Z,63.40
2018-05-04T20:14:54.179Z,64.00
2018-05-04T20:17:24.891Z,64.60
2018-05-04T20:20:04.588Z,65.00
2018-05-04T20:22:38.176Z,66.10
2018-05-04T20:25:05.684Z,66.50
2018-05-04T20:27:34.354Z,66.30
2018-05-04T20:30:01.864Z,67.30
2018-05-04T20:32:43.033Z,68.90
2018-05-04T20:35:11.492Z,68.60
2018-05-04T20:37:39.028Z,69.40
2018-05-04T20:40:08.572Z,69.40
2018-05-04T20:42:44.266Z,69.70
2018-05-04T20:45:14.076Z,69.60
2018-05-04T20:47:47.791Z,69.80
2018-05-04T20:50:15.594Z,70.10
2018-05-04T20:52:45.214Z,70.40
2018-05-04T20:55:14.794Z,71.40
2018-05-04T20:57:44.424Z,72.00
2018-05-04T21:00:13.151Z,73.70
2018-05-04T21:02:55.257Z,73.20
2018-05-04T21:05:33.178Z,73.10
2018-05-04T21:08:12.946Z,73.70
2018-05-04T21:10:53.221Z,74.90
2018-05-04T21:13:29.108Z,75.60
2018-05-04T21:15:56.820Z,74.90
2018-05-04T21:18:24.333Z,74.40
2018-05-04T21:20:53.910Z,74.50
2018-05-04T21:23:22.272Z,74.40
2018-05-04T21:25:54.980Z,74.40
2018-05-04T21:28:22.501Z,74.60
2018-05-04T21:30:56.924Z,74.70
2018-05-04T21:33:24.522Z,74.60
2018-05-04T21:35:52.242Z,74.80
2018-05-04T21:38:24.581Z,75.80
2018-05-04T21:40:58.746Z,75.40
2018-05-04T21:43:29.904Z,75.20
2018-05-04T21:46:05.008Z,74.70
2018-05-04T21:48:35.920Z,74.80
2018-05-04T21:51:03.679Z,74.60
2018-05-04T21:53:31.400Z,74.50
2018-05-04T21:56:02.266Z,74.50
2018-05-04T21:58:30.650Z,74.80
2018-05-04T22:01:00.298Z,74.70
2018-05-04T22:03:28.944Z,75.10
2018-05-04T22:06:07.795Z,75.40
2018-05-04T22:08:36.420Z,75.30
2018-05-04T22:11:04.156Z,75.50
2018-05-04T22:13:38.080Z,76.10
2018-05-04T22:16:11.688Z,76.60
2018-05-04T22:18:39.254Z,76.70
2018-05-04T22:21:15.206Z,76.70
2018-05-04T22:23:42.726Z,76.80
2018-05-04T22:26:10.482Z,77.20
2018-05-04T22:28:41.583Z,77.70
2018-05-04T22:31:09.082Z,78.00
2018-05-04T22:33:36.925Z,77.80
2018-05-04T22:36:04.613Z,77.90
2018-05-04T22:38:47.056Z,78.20
2018-05-04T22:41:15.794Z,78.60
2018-05-04T22:43:44.462Z,78.40
2018-05-04T22:46:15.937Z,78.70
2018-05-04T22:48:45.767Z,79.10
2018-05-04T22:51:13.311Z,79.40
2018-05-04T22:53:46.299Z,79.70
2018-05-04T22:56:14.367Z,79.80
2018-05-04T22:58:41.872Z,80.40
2018-05-04T23:01:15.759Z,81.50
2018-05-04T23:03:43.728Z,81.40
2018-05-04T23:06:12.174Z,81.60
2018-05-04T23:09:04.591Z,80.80
2018-05-04T23:11:33.592Z,81.10
2018-05-04T23:14:07.137Z,82.40
2018-05-04T23:16:36.420Z,80.70
2018-05-04T23:19:06.027Z,80.70
2018-05-04T23:21:35.642Z,80.00
2018-05-04T23:24:05.253Z,79.60
2018-05-04T23:26:36.710Z,79.10
2018-05-04T23:29:06.321Z,78.50
2018-05-04T23:31:47.593Z,78.50
2018-05-04T23:34:20.062Z,78.40
2018-05-04T23:36:47.844Z,78.50
2018-05-04T23:39:15.537Z,78.00
2018-05-04T23:41:44.750Z,77.60
2018-05-04T23:44:12.260Z,77.70
2018-05-04T23:46:40.951Z,77.60
2018-05-04T23:49:17.051Z,77.60
2018-05-04T23:51:44.762Z,77.70
2018-05-04T23:54:20.498Z,78.20
2018-05-04T23:56:49.454Z,80.30
2018-05-04T23:59:17.897Z,82.40
